Time;durP1;ratioP1;P1;durP2;ratioP2;P2;SDS_P1;SDS_P2;PMS_P1;PMS_P2;Temp;Humidity;BMP_temperature;BMP_pressure;BME280_temperature;BME280_humidity;BME280_pressure;Samples;Min_cycle;Max_cycle;Signal;HPM_P1;HPM_P2
2023/03/06 00:00:56;;;;;;;33.13;17.13;;;;;;;1.86;100.00;100650.06;4983124;28;20188;-69
2023/03/06 00:03:24;;;;;;;29.37;17.03;;;;;;;1.81;100.00;100655.66;4981065;28;20574;-69
2023/03/06 00:05:50;;;;;;;33.43;18.23;;;;;;;1.82;100.00;100653.22;4988694;28;20219;-69
2023/03/06 00:08:15;;;;;;;33.40;17.80;;;;;;;1.81;100.00;100650.59;4987720;28;20188;-67
2023/03/06 00:10:41;;;;;;;34.53;18.50;;;;;;;1.82;100.00;100645.63;4983064;28;20596;-69
2023/03/06 00:13:11;;;;;;;34.33;18.57;;;;;;;1.83;100.00;100641.47;4979483;28;20565;-70
2023/03/06 00:15:37;;;;;;;33.83;18.50;;;;;;;1.81;100.00;100643.91;4984161;28;20195;-69
2023/03/06 00:18:04;;;;;;;34.00;18.47;;;;;;;1.83;100.00;100646.53;4984396;28;20196;-70
2023/03/06 00:20:29;;;;;;;37.00;18.47;;;;;;;1.79;100.00;100642.09;4997597;28;20189;-70
2023/03/06 00:22:55;;;;;;;32.73;18.20;;;;;;;1.79;100.00;100652.19;4987046;28;20214;-69
2023/03/06 00:25:21;;;;;;;32.67;20.23;;;;;;;1.76;100.00;100655.44;4979238;28;20714;-68
2023/03/06 00:27:48;;;;;;;34.40;19.20;;;;;;;1.78;100.00;100645.38;4983546;28;20192;-69
2023/03/06 00:30:19;;;;;;;34.37;19.80;;;;;;;1.74;100.00;100644.38;4981843;28;20215;-69
2023/03/06 00:32:45;;;;;;;35.17;19.60;;;;;;;1.74;100.00;100638.47;4981766;28;20720;-70
2023/03/06 00:35:11;;;;;;;33.60;18.93;;;;;;;1.72;100.00;100635.88;4980269;28;20340;-68
2023/03/06 00:37:37;;;;;;;38.17;21.00;;;;;;;1.71;100.00;100633.28;4983180;28;20185;-69
2023/03/06 00:40:05;;;;;;;38.00;20.10;;;;;;;1.70;100.00;100636.59;4976791;28;20326;-68
2023/03/06 00:42:30;;;;;;;36.10;20.17;;;;;;;1.71;100.00;100630.75;4984077;28;20204;-67
2023/03/06 00:44:56;;;;;;;34.53;20.47;;;;;;;1.71;100.00;100638.31;4985059;28;20199;-69
2023/03/06 00:47:21;;;;;;;38.30;20.73;;;;;;;1.71;100.00;100636.69;4983382;28;20323;-67
2023/03/06 00:49:47;;;;;;;36.93;20.43;;;;;;;1.70;100.00;100639.97;4982354;28;20233;-67
2023/03/06 00:52:12;;;;;;;36.97;19.73;;;;;;;1.70;100.00;100636.59;4987809;28;20255;-69
2023/03/06 00:54:38;;;;;;;37.63;20.30;;;;;;;1.68;100.00;100636.50;4979993;28;20223;-69
2023/03/06 00:57:04;;;;;;;36.67;20.13;;;;;;;1.65;100.00;100632.97;4978545;28;20676;-65
2023/03/06 00:59:30;;;;;;;39.53;20.80;;;;;;;1.66;100.00;100637.22;4980474;28;20192;-68
2023/03/06 01:01:55;;;;;;;40.70;21.27;;;;;;;1.65;100.00;100632.97;4979759;28;20661;-67
2023/03/06 01:04:21;;;;;;;41.90;20.90;;;;;;;1.61;100.00;100626.88;4979891;28;20250;-69
2023/03/06 01:06:47;;;;;;;39.20;20.87;;;;;;;1.58;100.00;100630.91;4987565;28;20210;-68
2023/03/06 01:09:12;;;;;;;37.67;20.47;;;;;;;1.57;100.00;100636.75;4981723;28;20713;-68
2023/03/06 01:11:38;;;;;;;37.60;20.07;;;;;;;1.54;100.00;100629.91;4981497;28;20216;-67
2023/03/06 01:14:04;;;;;;;37.50;20.33;;;;;;;1.50;100.00;100628.00;4979189;28;20212;-68
2023/03/06 01:16:29;;;;;;;38.57;21.57;;;;;;;1.50;100.00;100630.53;4981953;28;20192;-69
2023/03/06 01:18:55;;;;;;;39.00;20.47;;;;;;;1.48;100.00;100619.50;4984398;28;20199;-67
2023/03/06 01:21:21;;;;;;;38.97;20.00;;;;;;;1.46;100.00;100626.09;4983396;28;20292;-69
2023/03/06 01:23:47;;;;;;;38.77;20.00;;;;;;;1.45;100.00;100623.50;4986479;28;20311;-68
2023/03/06 01:26:13;;;;;;;42.10;20.43;;;;;;;1.39;100.00;100614.00;4987331;28;20577;-69
2023/03/06 01:28:39;;;;;;;40.87;19.93;;;;;;;1.37;100.00;100614.69;4988540;28;20295;-67
2023/03/06 01:31:07;;;;;;;41.10;20.77;;;;;;;1.36;100.00;100610.41;4989780;28;20299;-68
2023/03/06 01:33:33;;;;;;;41.73;20.60;;;;;;;1.34;100.00;100615.41;4987009;28;20215;-68
2023/03/06 01:35:59;;;;;;;42.10;21.87;;;;;;;1.33;100.00;100612.81;4988554;28;20223;-69
2023/03/06 01:38:24;;;;;;;43.33;20.97;;;;;;;1.31;100.00;100611.84;4980994;28;20872;-68
2023/03/06 01:40:50;;;;;;;35.57;19.17;;;;;;;1.27;100.00;100608.31;4987823;28;20188;-69
2023/03/06 01:43:25;;;;;;;38.93;20.70;;;;;;;1.27;100.00;100608.31;4989295;28;20216;-69
2023/03/06 01:45:50;;;;;;;37.73;19.87;;;;;;;1.25;100.00;100609.00;4988882;28;20282;-68
2023/03/06 01:48:20;;;;;;;37.20;20.27;;;;;;;1.25;100.00;100599.81;4981529;28;20287;-68
2023/03/06 01:50:46;;;;;;;32.63;18.73;;;;;;;1.24;100.00;100599.72;4988067;28;20211;-68
2023/03/06 01:53:14;;;;;;;36.07;18.83;;;;;;;1.20;100.00;100596.19;4983514;28;20208;-67
2023/03/06 01:55:39;;;;;;;33.03;17.07;;;;;;;1.20;100.00;100595.31;4989531;28;20273;-68
2023/03/06 01:58:11;;;;;;;29.07;15.67;;;;;;;1.20;100.00;100593.66;4986630;28;20307;-69
2023/03/06 02:00:36;;;;;;;29.27;14.60;;;;;;;1.19;100.00;100589.38;5001129;28;20192;-68
2023/03/06 02:03:10;;;;;;;30.10;15.73;;;;;;;1.18;100.00;100590.19;4987375;28;21040;-69
2023/03/06 02:05:38;;;;;;;27.53;14.60;;;;;;;1.19;100.00;100586.84;4988592;28;20294;-68
2023/03/06 02:08:05;;;;;;;28.40;14.57;;;;;;;1.19;100.00;100586.00;4985683;28;20293;-68
2023/03/06 02:10:31;;;;;;;24.07;12.77;;;;;;;1.18;100.00;100589.28;4987418;28;20621;-68
2023/03/06 02:12:57;;;;;;;25.30;13.13;;;;;;;1.21;100.00;100584.44;4987393;28;20286;-68
2023/03/06 02:15:26;;;;;;;22.43;12.83;;;;;;;1.20;100.00;100596.19;4972661;28;20192;-66
2023/03/06 02:17:52;;;;;;;24.90;11.80;;;;;;;1.22;100.00;100593.72;4984373;28;20744;-69
2023/03/06 02:20:27;;;;;;;20.03;11.30;;;;;;;1.22;100.00;100591.19;4981181;28;20187;-67
2023/03/06 02:23:00;;;;;;;21.07;11.83;;;;;;;1.24;100.00;100593.00;4989849;28;20207;-69
2023/03/06 02:25:36;;;;;;;22.00;11.77;;;;;;;1.24;100.00;100580.41;4989787;28;20224;-68
2023/03/06 02:28:04;;;;;;;24.40;11.80;;;;;;;1.25;100.00;100579.63;4987709;28;20194;-68
2023/03/06 02:30:30;;;;;;;20.77;11.93;;;;;;;1.27;100.00;100585.59;4985224;28;20227;-68
2023/03/06 02:32:56;;;;;;;23.27;11.23;;;;;;;1.28;100.00;100589.84;4986512;28;20370;-69
2023/03/06 02:35:29;;;;;;;22.73;11.87;;;;;;;1.29;100.00;100581.50;4980612;28;20976;-69
2023/03/06 02:37:56;;;;;;;21.50;11.27;;;;;;;1.30;100.00;100585.78;4993741;28;20568;-67
2023/03/06 02:40:22;;;;;;;23.60;11.90;;;;;;;1.32;100.00;100583.34;4992870;28;20407;-69
2023/03/06 02:42:50;;;;;;;23.07;12.23;;;;;;;1.31;100.00;100579.94;4993224;28;20552;-69
2023/03/06 02:45:22;;;;;;;24.23;11.60;;;;;;;1.31;100.00;100579.06;5003047;28;20198;-68
2023/03/06 02:47:48;;;;;;;22.17;11.47;;;;;;;1.31;100.00;100584.09;4993506;28;20199;-67
2023/03/06 02:50:13;;;;;;;23.50;11.60;;;;;;;1.29;100.00;100573.94;4994311;28;20222;-67
2023/03/06 02:52:38;;;;;;;24.83;11.63;;;;;;;1.27;100.00;100580.56;4997361;28;20570;-69
2023/03/06 02:55:04;;;;;;;21.63;11.17;;;;;;;1.30;100.00;100577.34;4996965;28;20195;-69
2023/03/06 02:57:30;;;;;;;23.03;11.53;;;;;;;1.31;100.00;100574.03;4994167;28;20552;-69
2023/03/06 02:59:56;;;;;;;17.37;9.67;;;;;;;1.32;100.00;100576.63;4990401;28;20191;-69
2023/03/06 03:02:22;;;;;;;17.83;9.43;;;;;;;1.34;100.00;100575.06;4992328;28;20204;-68
2023/03/06 03:04:48;;;;;;;21.20;10.67;;;;;;;1.36;100.00;100572.59;4995742;28;20218;-68
2023/03/06 03:07:15;;;;;;;19.63;10.00;;;;;;;1.35;100.00;100568.34;4994396;28;20192;-67
2023/03/06 03:09:42;;;;;;;19.03;8.70;;;;;;;1.33;100.00;100560.69;4993769;28;20196;-67
2023/03/06 03:12:07;;;;;;;18.13;8.03;;;;;;;1.26;100.00;100561.19;4990378;28;20629;-68
2023/03/06 03:14:34;;;;;;;16.03;7.00;;;;;;;1.24;100.00;100560.22;4993233;28;20299;-69
2023/03/06 03:17:01;;;;;;;12.93;6.27;;;;;;;1.23;100.00;100555.97;4993476;28;20191;-68
2023/03/06 03:19:27;;;;;;;14.33;7.10;;;;;;;1.21;100.00;100552.53;4992839;28;20202;-67
2023/03/06 03:21:52;;;;;;;13.00;7.20;;;;;;;1.23;100.00;100555.97;4994950;28;20232;-67
2023/03/06 03:24:22;;;;;;;14.80;9.13;;;;;;;1.23;100.00;100548.41;4990428;28;20846;-67
2023/03/06 03:26:48;;;;;;;20.33;9.30;;;;;;;1.26;100.00;100545.19;4995847;28;20202;-69
2023/03/06 03:29:16;;;;;;;21.03;10.53;;;;;;;1.25;100.00;100545.97;4985017;28;20696;-69
2023/03/06 03:31:41;;;;;;;20.10;10.33;;;;;;;1.26;100.00;100545.19;4991573;28;20310;-69
2023/03/06 03:34:07;;;;;;;20.13;10.93;;;;;;;1.24;100.00;100537.53;4993225;28;20211;-68
2023/03/06 03:36:36;;;;;;;19.60;10.90;;;;;;;1.22;100.00;100535.72;4995209;28;20199;-69
2023/03/06 03:39:03;;;;;;;20.43;11.23;;;;;;;1.18;100.00;100528.78;4993444;28;20191;-68
2023/03/06 03:41:28;;;;;;;21.40;10.70;;;;;;;1.14;100.00;100519.38;4993991;28;20184;-69
2023/03/06 03:43:54;;;;;;;18.80;10.43;;;;;;;1.12;100.00;100506.69;4995011;28;20563;-68
2023/03/06 03:46:21;;;;;;;18.70;10.03;;;;;;;1.11;100.00;100512.53;4991409;28;20601;-67
2023/03/06 03:48:47;;;;;;;17.67;9.50;;;;;;;1.05;100.00;100507.16;4990513;28;20669;-67
2023/03/06 03:51:15;;;;;;;21.03;10.73;;;;;;;1.06;100.00;100506.34;4988675;28;20211;-69
2023/03/06 03:53:44;;;;;;;25.07;10.87;;;;;;;1.04;100.00;100505.41;4990548;28;20251;-69
2023/03/06 03:56:12;;;;;;;23.63;12.03;;;;;;;1.03;100.00;100512.91;4990368;28;20191;-67
2023/03/06 03:58:45;;;;;;;27.03;12.17;;;;;;;1.03;100.00;100511.25;4990962;28;20200;-68
2023/03/06 04:01:11;;;;;;;27.57;13.00;;;;;;;1.01;100.00;100514.50;4991047;28;20275;-67
2023/03/06 04:03:37;;;;;;;26.93;12.90;;;;;;;0.99;100.00;100508.47;4991132;28;20302;-65
2023/03/06 04:06:06;;;;;;;27.10;12.73;;;;;;;0.98;100.00;100509.28;4985038;28;20643;-67
2023/03/06 04:08:32;;;;;;;26.30;12.80;;;;;;;0.96;100.00;100505.84;4992242;28;20188;-68
2023/03/06 04:10:58;;;;;;;26.27;12.47;;;;;;;0.94;100.00;100503.22;4993284;28;20219;-68
2023/03/06 04:13:24;;;;;;;26.00;12.57;;;;;;;0.95;100.00;100502.44;4994228;28;20266;-67
2023/03/06 04:15:53;;;;;;;27.40;13.13;;;;;;;0.97;100.00;100502.50;4988303;28;20199;-67
2023/03/06 04:18:20;;;;;;;30.00;14.50;;;;;;;0.96;100.00;100500.78;4993787;28;20196;-68
2023/03/06 04:20:48;;;;;;;28.37;13.40;;;;;;;0.97;100.00;100495.84;4991002;28;20192;-68
2023/03/06 04:23:15;;;;;;;27.13;13.53;;;;;;;0.97;100.00;100489.91;4992795;28;20219;-68
2023/03/06 04:25:41;;;;;;;31.73;13.57;;;;;;;0.97;100.00;100487.41;4991129;28;20195;-69
2023/03/06 04:28:10;;;;;;;29.67;13.87;;;;;;;0.99;100.00;100488.31;4992481;28;20249;-69
2023/03/06 04:30:35;;;;;;;31.17;13.57;;;;;;;1.00;100.00;100485.03;4991285;28;20713;-67
2023/03/06 04:33:01;;;;;;;28.80;14.30;;;;;;;1.00;100.00;100490.94;4987771;28;20233;-69
2023/03/06 04:35:27;;;;;;;25.97;12.57;;;;;;;1.01;100.00;100487.63;4992625;28;20698;-69
2023/03/06 04:38:00;;;;;;;28.93;12.47;;;;;;;1.00;100.00;100485.03;4992424;28;20203;-69
2023/03/06 04:40:29;;;;;;;26.83;12.40;;;;;;;0.99;100.00;100476.59;4988118;28;20226;-69
2023/03/06 04:42:56;;;;;;;26.30;12.50;;;;;;;0.96;100.00;100478.97;4991664;28;20243;-67
2023/03/06 04:45:22;;;;;;;24.93;10.97;;;;;;;0.98;100.00;100482.44;4986495;28;20258;-68
2023/03/06 04:47:48;;;;;;;24.07;10.97;;;;;;;0.98;100.00;100479.91;4992519;28;20199;-69
2023/03/06 04:50:14;;;;;;;21.87;10.33;;;;;;;0.96;100.00;100471.41;4990204;28;20219;-68
2023/03/06 04:52:40;;;;;;;23.40;11.17;;;;;;;0.99;100.00;100470.69;4988236;28;20203;-66
2023/03/06 04:55:07;;;;;;;22.70;11.50;;;;;;;0.95;100.00;100468.78;4993613;28;20196;-67
2023/03/06 04:57:43;;;;;;;25.10;11.63;;;;;;;0.94;100.00;100472.09;4994138;28;20196;-67
2023/03/06 05:00:15;;;;;;;24.90;11.87;;;;;;;0.93;100.00;100478.81;4990493;28;20195;-67
2023/03/06 05:02:42;;;;;;;25.27;11.50;;;;;;;0.91;100.00;100472.81;4987464;28;20202;-68
2023/03/06 05:05:08;;;;;;;23.60;11.60;;;;;;;0.88;100.00;100472.69;4987699;28;20231;-68
2023/03/06 05:07:34;;;;;;;22.80;11.70;;;;;;;0.86;100.00;100468.34;4992623;28;20665;-68
2023/03/06 05:09:59;;;;;;;26.37;11.77;;;;;;;0.88;100.00;100466.78;4990517;28;20192;-68
2023/03/06 05:12:25;;;;;;;21.80;11.07;;;;;;;0.85;100.00;100464.97;4993302;28;20693;-68
2023/03/06 05:14:50;;;;;;;23.07;11.37;;;;;;;0.87;100.00;100465.88;4995001;28;20226;-68
2023/03/06 05:17:16;;;;;;;22.60;11.87;;;;;;;0.85;100.00;100469.13;4995169;28;20203;-67
2023/03/06 05:19:41;;;;;;;25.20;13.13;;;;;;;0.80;100.00;100465.50;4995959;28;20252;-66
2023/03/06 05:22:06;;;;;;;26.03;13.80;;;;;;;0.77;100.00;100468.72;4991513;28;20290;-68
2023/03/06 05:24:32;;;;;;;25.53;12.83;;;;;;;0.79;100.00;100464.66;4995652;28;20223;-66
2023/03/06 05:26:57;;;;;;;21.93;11.53;;;;;;;0.80;100.00;100460.47;4993482;28;20199;-69
2023/03/06 05:29:23;;;;;;;23.53;12.20;;;;;;;0.79;100.00;100457.09;4994173;28;20649;-68
2023/03/06 05:31:48;;;;;;;22.57;11.67;;;;;;;0.82;100.00;100462.28;4975635;28;20691;-69
2023/03/06 05:34:15;;;;;;;21.77;11.30;;;;;;;0.81;100.00;100463.06;4989942;28;20226;-68
2023/03/06 05:36:41;;;;;;;22.50;11.50;;;;;;;0.77;100.00;100456.13;4987733;28;20234;-69
2023/03/06 05:39:07;;;;;;;23.07;11.97;;;;;;;0.79;100.00;100462.13;4993686;28;20331;-68
2023/03/06 05:41:32;;;;;;;25.50;12.43;;;;;;;0.76;100.00;100456.94;4989080;28;20342;-68
2023/03/06 05:43:57;;;;;;;22.77;11.53;;;;;;;0.76;100.00;100454.41;4988986;28;20215;-68
2023/03/06 05:46:23;;;;;;;23.30;12.30;;;;;;;0.80;100.00;100458.81;4989195;28;20654;-66
2023/03/06 05:48:51;;;;;;;25.40;12.37;;;;;;;0.78;100.00;100457.88;4994317;28;20325;-67
2023/03/06 05:51:17;;;;;;;20.83;10.83;;;;;;;0.77;100.00;100455.28;4992232;28;20223;-68
2023/03/06 05:53:42;;;;;;;21.63;10.57;;;;;;;0.80;100.00;100450.38;4992832;28;20214;-69
2023/03/06 05:56:08;;;;;;;23.43;11.73;;;;;;;0.79;100.00;100448.66;4992294;28;20562;-67
2023/03/06 05:58:34;;;;;;;24.67;12.23;;;;;;;0.80;100.00;100450.38;4991257;28;20220;-67
2023/03/06 06:01:08;;;;;;;21.77;11.57;;;;;;;0.79;100.00;100441.97;4990277;28;20246;-66
2023/03/06 06:03:33;;;;;;;24.33;10.73;;;;;;;0.80;100.00;100441.19;4994208;28;20216;-69
2023/03/06 06:06:03;;;;;;;22.87;11.70;;;;;;;0.80;100.00;100447.88;4990033;28;20196;-68
2023/03/06 06:08:28;;;;;;;22.97;11.90;;;;;;;0.76;100.00;100446.84;4992451;28;20274;-68
2023/03/06 06:10:53;;;;;;;20.40;10.70;;;;;;;0.77;100.00;100442.69;4988520;28;20630;-69
2023/03/06 06:13:19;;;;;;;23.93;12.27;;;;;;;0.75;100.00;100446.78;4990048;28;20220;-68
2023/03/06 06:15:44;;;;;;;23.03;11.70;;;;;;;0.74;100.00;100450.09;4995369;28;20824;-67
2023/03/06 06:18:10;;;;;;;22.33;11.00;;;;;;;0.70;100.00;100444.03;4988876;28;20721;-68
2023/03/06 06:20:36;;;;;;;20.67;11.50;;;;;;;0.62;100.00;100450.31;4994757;28;20235;-68
2023/03/06 06:23:02;;;;;;;31.20;16.23;;;;;;;0.62;100.00;100452.84;4993141;28;20301;-68
2023/03/06 06:25:27;;;;;;;24.87;14.00;;;;;;;0.64;100.00;100452.91;4990515;28;20331;-69
2023/03/06 06:27:55;;;;;;;21.63;11.77;;;;;;;0.62;100.00;100451.97;4986503;28;20273;-69
2023/03/06 06:30:20;;;;;;;19.90;10.67;;;;;;;0.67;100.00;100463.13;4994370;28;20222;-70
2023/03/06 06:32:46;;;;;;;25.37;15.57;;;;;;;0.64;100.00;100458.81;4990543;28;20724;-68
2023/03/06 06:35:11;;;;;;;22.87;12.93;;;;;;;0.63;100.00;100461.28;4992396;28;20287;-68
2023/03/06 06:37:37;;;;;;;17.93;10.20;;;;;;;0.66;100.00;100461.41;4987606;28;20206;-69
2023/03/06 06:40:03;;;;;;;20.37;10.13;;;;;;;0.67;100.00;100464.00;4992892;28;20203;-69
2023/03/06 06:42:28;;;;;;;19.57;10.03;;;;;;;0.72;100.00;100456.72;4991499;28;20187;-69
2023/03/06 06:44:54;;;;;;;17.30;8.87;;;;;;;0.69;100.00;100459.91;4989196;28;20580;-68
2023/03/06 06:47:19;;;;;;;18.53;9.83;;;;;;;0.74;100.00;100450.97;4986805;28;20203;-69
2023/03/06 06:49:49;;;;;;;16.77;9.37;;;;;;;0.80;100.00;100455.44;4991769;28;20227;-69
2023/03/06 06:52:15;;;;;;;15.40;8.10;;;;;;;0.81;100.00;100454.63;4989543;28;20297;-69
2023/03/06 06:54:40;;;;;;;15.17;8.40;;;;;;;0.75;100.00;100457.72;4993758;28;20270;-69
2023/03/06 06:57:05;;;;;;;16.40;8.33;;;;;;;0.78;100.00;100455.34;4991878;28;20211;-67
2023/03/06 06:59:31;;;;;;;17.90;8.73;;;;;;;0.78;100.00;100462.91;4989374;28;20195;-69
2023/03/06 07:01:56;;;;;;;14.03;8.20;;;;;;;0.80;100.00;100455.44;4990367;28;20267;-69
2023/03/06 07:04:22;;;;;;;15.03;7.67;;;;;;;0.86;100.00;100454.09;4991602;28;20215;-69
2023/03/06 07:06:47;;;;;;;14.20;7.87;;;;;;;0.91;100.00;100451.81;4994358;28;20282;-68
2023/03/06 07:09:13;;;;;;;16.53;8.77;;;;;;;0.99;100.00;100450.53;4992395;28;20191;-69
2023/03/06 07:11:39;;;;;;;14.07;8.47;;;;;;;1.01;100.00;100454.84;4994352;28;20586;-69
2023/03/06 07:14:05;;;;;;;13.23;7.43;;;;;;;1.07;100.00;100451.78;4987935;28;20219;-68
2023/03/06 07:16:30;;;;;;;15.20;8.13;;;;;;;1.14;100.00;100452.16;4994774;28;20258;-67
2023/03/06 07:18:55;;;;;;;15.13;8.60;;;;;;;1.20;100.00;100451.63;4988855;28;20202;-68
2023/03/06 07:21:21;;;;;;;15.23;8.60;;;;;;;1.33;100.00;100446.38;4990060;28;20188;-69
2023/03/06 07:23:46;;;;;;;15.30;9.07;;;;;;;1.57;100.00;100440.00;4997796;28;20250;-69
2023/03/06 07:26:12;;;;;;;15.93;8.77;;;;;;;1.66;100.00;100441.28;4997534;28;20196;-68
2023/03/06 07:28:37;;;;;;;14.17;8.77;;;;;;;1.71;100.00;100447.44;4994266;28;20191;-69
2023/03/06 07:31:07;;;;;;;14.90;8.50;;;;;;;1.86;100.00;100447.28;4992005;28;20711;-68
2023/03/06 07:33:33;;;;;;;14.10;7.73;;;;;;;1.81;100.00;100439.50;4994649;28;20219;-68
2023/03/06 07:35:58;;;;;;;12.90;7.50;;;;;;;1.94;100.00;100451.91;4995999;28;20206;-68
2023/03/06 07:38:24;;;;;;;9.80;5.77;;;;;;;1.90;100.00;100445.00;4993023;28;20203;-68
2023/03/06 07:40:50;;;;;;;8.07;4.80;;;;;;;1.98;100.00;100447.88;4996845;28;20203;-68
2023/03/06 07:43:16;;;;;;;8.30;4.60;;;;;;;2.05;100.00;100452.38;4993211;28;20270;-68
2023/03/06 07:45:46;;;;;;;8.73;5.07;;;;;;;2.01;100.00;100465.66;4990166;28;20233;-68
2023/03/06 07:48:13;;;;;;;8.47;5.13;;;;;;;1.94;100.00;100463.66;4990428;28;20207;-67
2023/03/06 07:50:38;;;;;;;7.53;5.13;;;;;;;1.91;100.00;100466.03;4996344;28;20215;-69
2023/03/06 07:53:04;;;;;;;8.63;5.17;;;;;;;2.21;100.00;100462.41;4992750;28;20269;-68
2023/03/06 07:55:29;;;;;;;8.53;4.90;;;;;;;2.33;100.00;100460.44;4992400;28;20665;-68
2023/03/06 07:57:54;;;;;;;9.27;5.20;;;;;;;2.36;100.00;100463.97;4995090;28;20287;-68
2023/03/06 08:00:20;;;;;;;8.13;4.80;;;;;;;2.50;100.00;100468.00;4995265;28;20239;-69
2023/03/06 08:02:46;;;;;;;8.13;4.40;;;;;;;2.81;100.00;100452.50;4994305;28;20203;-68
2023/03/06 08:05:14;;;;;;;9.23;5.33;;;;;;;2.65;100.00;100452.63;4993173;28;20299;-68
2023/03/06 08:07:39;;;;;;;9.27;5.40;;;;;;;2.89;100.00;100456.25;4997184;28;20283;-68
2023/03/06 08:10:05;;;;;;;8.60;4.90;;;;;;;3.04;100.00;100455.22;4994941;28;20205;-69
2023/03/06 08:12:31;;;;;;;8.20;5.30;;;;;;;3.42;100.00;100450.09;4992100;28;20196;-69
2023/03/06 08:14:56;;;;;;;8.97;5.57;;;;;;;3.56;100.00;100458.25;4989770;28;20770;-67
2023/03/06 08:17:22;;;;;;;7.50;5.10;;;;;;;3.57;100.00;100463.38;4996832;28;20207;-68
2023/03/06 08:19:48;;;;;;;8.20;5.60;;;;;;;3.63;100.00;100456.00;4997030;28;20265;-68
2023/03/06 08:22:13;;;;;;;10.30;7.47;;;;;;;3.47;100.00;100463.81;4996764;28;20192;-69
2023/03/06 08:24:39;;;;;;;10.20;7.43;;;;;;;3.41;100.00;100472.81;4992784;28;20261;-67
2023/03/06 08:27:05;;;;;;;10.67;7.63;;;;;;;3.38;100.00;100470.13;4994827;28;20214;-66
2023/03/06 08:29:30;;;;;;;12.03;8.13;;;;;;;3.20;100.00;100474.41;4991746;28;20231;-69
2023/03/06 08:31:55;;;;;;;13.90;7.93;;;;;;;3.25;100.00;100473.81;4976842;28;20222;-69
2023/03/06 08:34:25;;;;;;;12.23;7.87;;;;;;;3.26;100.00;100483.13;4993196;28;20294;-67
2023/03/06 08:36:51;;;;;;;14.47;8.30;;;;;;;3.16;100.00;100486.09;4995671;28;20206;-68
2023/03/06 08:39:17;;;;;;;11.70;6.47;;;;;;;2.86;100.00;100482.25;4990527;28;20191;-69
2023/03/06 08:41:42;;;;;;;9.07;6.47;;;;;;;2.92;100.00;100489.22;4995306;28;20199;-69
2023/03/06 08:44:09;;;;;;;8.87;6.33;;;;;;;2.95;100.00;100486.84;4993617;28;20251;-69
2023/03/06 08:46:34;;;;;;;8.83;6.80;;;;;;;2.89;100.00;100492.47;4987607;28;20188;-69
2023/03/06 08:49:00;;;;;;;10.97;6.50;;;;;;;2.86;100.00;100489.84;4989084;28;20196;-69
2023/03/06 08:51:27;;;;;;;11.37;7.07;;;;;;;3.00;100.00;100488.78;4988973;28;20215;-68
2023/03/06 08:53:54;;;;;;;9.30;7.20;;;;;;;3.05;100.00;100499.06;4990959;28;20587;-70
2023/03/06 08:56:31;;;;;;;11.60;7.50;;;;;;;2.81;100.00;100503.91;4990614;28;20196;-69
2023/03/06 08:58:58;;;;;;;9.63;7.07;;;;;;;2.94;100.00;100495.22;4989156;28;20353;-68
2023/03/06 09:01:26;;;;;;;9.63;6.57;;;;;;;3.00;100.00;100491.31;4992790;28;20184;-68
2023/03/06 09:03:57;;;;;;;9.63;5.90;;;;;;;3.15;100.00;100491.94;4991952;28;20277;-68
2023/03/06 09:06:23;;;;;;;14.23;6.00;;;;;;;3.15;100.00;100502.06;4992412;28;20188;-67
2023/03/06 09:08:52;;;;;;;8.37;5.43;;;;;;;3.40;100.00;100498.91;4994001;28;20200;-68
2023/03/06 09:11:19;;;;;;;6.57;4.43;;;;;;;3.86;100.00;100490.72;4990322;28;20216;-67
2023/03/06 09:13:44;;;;;;;10.63;4.73;;;;;;;4.13;100.00;100490.91;4992673;28;20223;-69
2023/03/06 09:16:10;;;;;;;6.80;4.83;;;;;;;4.06;100.00;100492.38;4966965;28;20727;-69
2023/03/06 09:18:36;;;;;;;6.37;4.20;;;;;;;4.30;100.00;100485.72;4994567;28;20187;-69
2023/03/06 09:21:03;;;;;;;7.30;4.97;;;;;;;4.95;100.00;100475.44;4988972;28;20640;-69
2023/03/06 09:23:29;;;;;;;6.40;4.60;;;;;;;5.83;100.00;100439.56;4993275;28;20211;-68
2023/03/06 09:25:57;;;;;;;6.13;4.37;;;;;;;7.29;100.00;100330.06;4987839;28;20199;-69
2023/03/06 09:28:23;;;;;;;7.20;3.83;;;;;;;10.42;100.00;99995.41;4993488;28;20340;-68
2023/03/06 09:30:49;;;;;;;6.20;3.80;;;;;;;10.81;100.00;99834.31;4991457;28;20308;-69
2023/03/06 09:33:15;;;;;;;4.77;3.47;;;;;;;13.74;70.50;99503.06;4994142;28;20591;-70
2023/03/06 09:35:53;;;;;;;5.33;3.50;;;;;;;12.51;70.90;99464.34;4992139;28;20206;-69
2023/03/06 09:38:20;;;;;;;4.87;4.00;;;;;;;13.28;65.27;99437.72;4994666;28;20227;-66
2023/03/06 09:40:57;;;;;;;6.70;3.90;;;;;;;16.41;54.51;99291.75;4983012;28;20279;-70
2023/03/06 09:43:29;;;;;;;4.67;3.83;;;;;;;15.29;49.27;99138.25;4987625;28;20579;-69
2023/03/06 09:45:56;;;;;;;5.17;4.40;;;;;;;14.64;52.51;99280.81;4984553;28;20196;-70
2023/03/06 09:48:32;;;;;;;5.20;4.20;;;;;;;18.32;45.98;99158.34;4992009;28;20195;-70
2023/03/06 09:51:05;;;;;;;4.78;4.28;;;;;;;20.48;39.93;99291.94;4986326;28;20227;-69
2023/03/06 09:53:56;;;;;;;4.97;4.47;;;;;;;15.73;46.13;100185.06;4975718;28;20242;-70
2023/03/06 09:56:29;;;;;;;5.70;4.70;;;;;;;15.74;51.19;100254.75;4991135;28;20211;-68
2023/03/06 09:59:03;;;;;;;5.13;4.50;;;;;;;16.22;46.21;100161.16;4985892;28;20216;-69
2023/03/06 10:01:33;;;;;;;5.57;4.90;;;;;;;18.54;43.86;100140.28;4986033;28;20662;-70
2023/03/06 10:04:23;;;;;;;4.70;3.97;;;;;;;15.95;46.77;100186.50;4986030;28;20215;-69
2023/03/06 10:06:54;;;;;;;4.90;4.07;;;;;;;14.76;50.22;100205.78;4988250;28;20290;-70
2023/03/06 10:09:27;;;;;;;6.27;4.70;;;;;;;12.49;63.03;100316.03;4987379;28;20251;-69
2023/03/06 10:12:05;;;;;;;5.60;4.37;;;;;;;10.89;84.16;100419.16;4985239;28;20219;-68
2023/03/06 10:14:36;;;;;;;5.63;4.73;;;;;;;10.33;92.49;100480.72;4988446;28;20207;-69
2023/03/06 10:17:03;;;;;;;5.47;4.63;;;;;;;10.66;91.76;100496.53;4971474;28;20192;-69
2023/03/06 10:19:38;;;;;;;5.83;4.37;;;;;;;10.04;97.99;100531.44;4956086;28;20220;-69
2023/03/06 10:22:28;;;;;;;7.07;4.60;;;;;;;10.19;97.76;100530.84;4966738;28;20576;-69
2023/03/06 10:25:01;;;;;;;5.67;4.30;;;;;;;10.73;94.08;100494.09;4972983;28;20693;-68
2023/03/06 10:27:49;;;;;;;6.17;3.97;;;;;;;15.78;56.92;100240.94;4965454;28;20203;-69
2023/03/06 10:30:37;;;;;;;5.97;3.80;;;;;;;14.52;50.13;100096.88;4961760;28;20188;-69
2023/03/06 10:33:24;;;;;;;6.53;4.60;;;;;;;11.14;78.83;100334.00;4965788;28;20216;-67
2023/03/06 10:35:54;;;;;;;5.57;4.43;;;;;;;9.52;95.78;100470.00;4970153;28;20218;-67
2023/03/06 10:38:26;;;;;;;5.83;4.80;;;;;;;9.13;100.00;100527.19;4964762;28;20208;-68
2023/03/06 10:41:09;;;;;;;5.87;4.33;;;;;;;8.48;100.00;100589.56;4967490;28;20192;-68
2023/03/06 10:43:40;;;;;;;5.50;3.80;;;;;;;8.13;100.00;100599.72;4964710;28;20224;-69
2023/03/06 10:46:06;;;;;;;6.87;4.20;;;;;;;7.48;100.00;100620.94;4967938;28;20220;-69
2023/03/06 10:48:35;;;;;;;6.67;3.97;;;;;;;7.48;100.00;100637.88;4954508;28;20204;-69
2023/03/06 10:51:21;;;;;;;6.33;3.67;;;;;;;7.38;100.00;100634.19;4961863;28;20223;-66
2023/03/06 10:53:57;;;;;;;4.47;3.10;;;;;;;7.19;100.00;100643.84;4975549;28;20238;-68
2023/03/06 10:56:33;;;;;;;3.30;2.80;;;;;;;6.77;100.00;100656.13;4966125;28;20270;-68
2023/03/06 10:59:16;;;;;;;5.20;3.83;;;;;;;6.91;100.00;100648.94;4974494;28;20211;-67
2023/03/06 11:01:45;;;;;;;3.50;3.00;;;;;;;6.85;100.00;100631.78;4976973;28;20199;-68
2023/03/06 11:04:33;;;;;;;6.00;3.07;;;;;;;10.04;100.00;100528.88;4977586;28;20229;-69
2023/03/06 11:07:18;;;;;;;3.77;2.80;;;;;;;12.45;66.23;100084.06;4974181;28;20289;-66
2023/03/06 11:09:57;;;;;;;4.43;2.73;;;;;;;11.70;81.35;100176.31;4973331;28;20206;-67
2023/03/06 11:12:25;;;;;;;4.20;2.63;;;;;;;10.26;85.93;100189.78;4971766;28;20222;-68
2023/03/06 11:15:06;;;;;;;3.97;2.43;;;;;;;9.64;93.78;100275.94;4976449;28;20219;-66
2023/03/06 11:17:35;;;;;;;4.63;2.90;;;;;;;10.32;87.19;100220.56;4967620;28;20206;-66